sensor_id;sensor_type;location;lat;lon;timestamp;pressure;altitude;pressure_sealevel;temperature;humidity
49377;BME280;35253;34.688;33.040;2022-11-20T00:02:22;102054.88;;;19.32;100.00
49377;BME280;35253;34.688;33.040;2022-11-20T00:04:48;102051.72;;;19.39;100.00
49377;BME280;35253;34.688;33.040;2022-11-20T00:07:13;102048.94;;;19.27;100.00
49377;BME280;35253;34.688;33.040;2022-11-20T00:09:39;102050.13;;;19.23;100.00
49377;BME280;35253;34.688;33.040;2022-11-20T00:12:04;102063.44;;;19.26;100.00
49377;BME280;35253;34.688;33.040;2022-11-20T00:14:30;102050.09;;;19.12;100.00
49377;BME280;35253;34.688;33.040;2022-11-20T00:16:55;102047.50;;;18.98;100.00
49377;BME280;35253;34.688;33.040;2022-11-20T00:19:20;102046.84;;;19.07;100.00
49377;BME280;35253;34.688;33.040;2022-11-20T00:21:46;102042.94;;;19.11;100.00
49377;BME280;35253;34.688;33.040;2022-11-20T00:24:11;102046.06;;;19.05;100.00
49377;BME280;35253;34.688;33.040;2022-11-20T00:26:37;102037.97;;;19.05;100.00
49377;BME280;35253;34.688;33.040;2022-11-20T00:29:02;102041.66;;;19.04;100.00
49377;BME280;35253;34.688;33.040;2022-11-20T00:31:28;102031.53;;;18.95;100.00
49377;BME280;35253;34.688;33.040;2022-11-20T00:33:54;102046.00;;;18.94;100.00
49377;BME280;35253;34.688;33.040;2022-11-20T00:36:21;102041.88;;;19.01;100.00
49377;BME280;35253;34.688;33.040;2022-11-20T00:38:46;102039.94;;;19.03;100.00
49377;BME280;35253;34.688;33.040;2022-11-20T00:41:15;102040.91;;;19.02;100.00
49377;BME280;35253;34.688;33.040;2022-11-20T00:43:41;102043.84;;;18.99;100.00
49377;BME280;35253;34.688;33.040;2022-11-20T00:46:08;102048.03;;;19.03;100.00
49377;BME280;35253;34.688;33.040;2022-11-20T00:48:34;102034.97;;;18.97;100.00
49377;BME280;35253;34.688;33.040;2022-11-20T00:50:59;102040.16;;;18.87;100.00
49377;BME280;35253;34.688;33.040;2022-11-20T00:53:25;102039.50;;;18.97;100.00
49377;BME280;35253;34.688;33.040;2022-11-20T00:55:54;102036.91;;;19.08;100.00
49377;BME280;35253;34.688;33.040;2022-11-20T00:58:20;102028.28;;;18.90;100.00
49377;BME280;35253;34.688;33.040;2022-11-20T01:00:46;102031.53;;;18.95;100.00
49377;BME280;35253;34.688;33.040;2022-11-20T01:03:11;102026.28;;;19.05;100.00
49377;BME280;35253;34.688;33.040;2022-11-20T01:05:37;102027.63;;;18.99;100.00
49377;BME280;35253;34.688;33.040;2022-11-20T01:08:02;102026.66;;;18.87;100.00
49377;BME280;35253;34.688;33.040;2022-11-20T01:10:28;102021.81;;;18.80;100.00
49377;BME280;35253;34.688;33.040;2022-11-20T01:12:54;102012.09;;;18.77;100.00
49377;BME280;35253;34.688;33.040;2022-11-20T01:15:39;102005.84;;;18.77;100.00
49377;BME280;35253;34.688;33.040;2022-11-20T01:18:04;101993.91;;;18.79;100.00
49377;BME280;35253;34.688;33.040;2022-11-20T01:20:33;102003.19;;;18.88;100.00
49377;BME280;35253;34.688;33.040;2022-11-20T01:22:59;102001.59;;;18.85;100.00
49377;BME280;35253;34.688;33.040;2022-11-20T01:25:24;102003.00;;;18.91;100.00
49377;BME280;35253;34.688;33.040;2022-11-20T01:27:50;102003.09;;;18.89;100.00
49377;BME280;35253;34.688;33.040;2022-11-20T01:30:15;102008.16;;;18.94;100.00
49377;BME280;35253;34.688;33.040;2022-11-20T01:32:41;102002.47;;;18.86;100.00
49377;BME280;35253;34.688;33.040;2022-11-20T01:35:06;101993.44;;;18.98;100.00
49377;BME280;35253;34.688;33.040;2022-11-20T01:37:32;101999.28;;;18.92;100.00
49377;BME280;35253;34.688;33.040;2022-11-20T01:39:57;102000.72;;;18.85;100.00
49377;BME280;35253;34.688;33.040;2022-11-20T01:42:22;101996.28;;;18.84;100.00
49377;BME280;35253;34.688;33.040;2022-11-20T01:47:51;101988.72;;;18.89;100.00
49377;BME280;35253;34.688;33.040;2022-11-20T01:50:23;101993.16;;;18.90;100.00
49377;BME280;35253;34.688;33.040;2022-11-20T01:55:36;101989.97;;;18.96;100.00
49377;BME280;35253;34.688;33.040;2022-11-20T01:58:25;101978.44;;;18.94;100.00
49377;BME280;35253;34.688;33.040;2022-11-20T02:00:53;101989.66;;;19.01;100.00
49377;BME280;35253;34.688;33.040;2022-11-20T02:03:20;101981.38;;;18.91;100.00
49377;BME280;35253;34.688;33.040;2022-11-20T02:08:11;101983.75;;;18.83;100.00
49377;BME280;35253;34.688;33.040;2022-11-20T02:10:37;101985.16;;;18.88;100.00
49377;BME280;35253;34.688;33.040;2022-11-20T02:13:02;101972.97;;;18.70;100.00
49377;BME280;35253;34.688;33.040;2022-11-20T02:15:46;101976.66;;;18.57;100.00
49377;BME280;35253;34.688;33.040;2022-11-20T02:18:13;101974.72;;;18.59;100.00
49377;BME280;35253;34.688;33.040;2022-11-20T02:20:39;101977.09;;;18.51;100.00
49377;BME280;35253;34.688;33.040;2022-11-20T02:25:44;101977.28;;;18.47;100.00
49377;BME280;35253;34.688;33.040;2022-11-20T02:28:11;101982.91;;;18.44;100.00
49377;BME280;35253;34.688;33.040;2022-11-20T02:30:36;101978.16;;;18.35;100.00
49377;BME280;35253;34.688;33.040;2022-11-20T02:33:02;101974.72;;;18.46;100.00
49377;BME280;35253;34.688;33.040;2022-11-20T02:37:53;101972.34;;;18.41;100.00
49377;BME280;35253;34.688;33.040;2022-11-20T02:40:20;101976.25;;;18.37;100.00
49377;BME280;35253;34.688;33.040;2022-11-20T02:42:45;101975.69;;;18.32;100.00
49377;BME280;35253;34.688;33.040;2022-11-20T02:45:11;101966.94;;;18.41;100.00
49377;BME280;35253;34.688;33.040;2022-11-20T02:47:37;101968.44;;;18.45;100.00
49377;BME280;35253;34.688;33.040;2022-11-20T02:50:02;101972.56;;;18.38;100.00
49377;BME280;35253;34.688;33.040;2022-11-20T02:52:28;101978.63;;;18.29;100.00
49377;BME280;35253;34.688;33.040;2022-11-20T02:54:53;101971.72;;;18.25;100.00
49377;BME280;35253;34.688;33.040;2022-11-20T02:57:19;101970.41;;;18.31;100.00
49377;BME280;35253;34.688;33.040;2022-11-20T02:59:45;101969.53;;;18.30;100.00
49377;BME280;35253;34.688;33.040;2022-11-20T03:02:10;101964.56;;;18.37;100.00
49377;BME280;35253;34.688;33.040;2022-11-20T03:04:35;101971.50;;;18.28;100.00
49377;BME280;35253;34.688;33.040;2022-11-20T03:07:01;101975.56;;;18.21;100.00
49377;BME280;35253;34.688;33.040;2022-11-20T03:09:26;101974.53;;;18.11;100.00
49377;BME280;35253;34.688;33.040;2022-11-20T03:11:52;101985.00;;;18.03;100.00
49377;BME280;35253;34.688;33.040;2022-11-20T03:14:17;101982.47;;;18.00;100.00
49377;BME280;35253;34.688;33.040;2022-11-20T03:16:43;101975.16;;;18.02;100.00
49377;BME280;35253;34.688;33.040;2022-11-20T03:19:08;101975.69;;;17.94;100.00
49377;BME280;35253;34.688;33.040;2022-11-20T03:21:34;101974.28;;;18.01;100.00
49377;BME280;35253;34.688;33.040;2022-11-20T03:24:00;101970.63;;;18.02;100.00
49377;BME280;35253;34.688;33.040;2022-11-20T03:26:26;101975.72;;;18.07;100.00
49377;BME280;35253;34.688;33.040;2022-11-20T03:28:53;101978.97;;;18.12;100.00
49377;BME280;35253;34.688;33.040;2022-11-20T03:31:20;101976.66;;;18.06;100.00
49377;BME280;35253;34.688;33.040;2022-11-20T03:33:46;101981.53;;;18.01;100.00
49377;BME280;35253;34.688;33.040;2022-11-20T03:36:12;101981.63;;;17.99;100.00
49377;BME280;35253;34.688;33.040;2022-11-20T03:38:38;101981.75;;;17.98;100.00
49377;BME280;35253;34.688;33.040;2022-11-20T03:41:05;101984.00;;;18.04;100.00
49377;BME280;35253;34.688;33.040;2022-11-20T03:43:31;101988.84;;;17.99;100.00
49377;BME280;35253;34.688;33.040;2022-11-20T03:45:56;101988.97;;;17.97;100.00
49377;BME280;35253;34.688;33.040;2022-11-20T03:48:22;101990.25;;;17.92;100.00
49377;BME280;35253;34.688;33.040;2022-11-20T03:50:48;101984.00;;;18.04;100.00
49377;BME280;35253;34.688;33.040;2022-11-20T03:53:14;101980.22;;;17.94;100.00
49377;BME280;35253;34.688;33.040;2022-11-20T03:55:39;101984.94;;;17.90;100.00
49377;BME280;35253;34.688;33.040;2022-11-20T03:58:05;101992.00;;;17.93;100.00
49377;BME280;35253;34.688;33.040;2022-11-20T04:00:30;101988.31;;;17.94;100.00
49377;BME280;35253;34.688;33.040;2022-11-20T04:03:00;101987.78;;;18.01;100.00
49377;BME280;35253;34.688;33.040;2022-11-20T04:05:26;101992.63;;;18.09;100.00
49377;BME280;35253;34.688;33.040;2022-11-20T04:07:52;101998.38;;;18.17;100.00
49377;BME280;35253;34.688;33.040;2022-11-20T04:10:17;101993.50;;;18.22;100.00
49377;BME280;35253;34.688;33.040;2022-11-20T04:12:42;101991.78;;;18.21;100.00
49377;BME280;35253;34.688;33.040;2022-11-20T04:15:08;101979.81;;;18.25;100.00
49377;BME280;35253;34.688;33.040;2022-11-20T04:17:33;101981.84;;;18.34;100.00
49377;BME280;35253;34.688;33.040;2022-11-20T04:19:59;101988.25;;;18.33;100.00
49377;BME280;35253;34.688;33.040;2022-11-20T04:22:24;101997.53;;;18.29;100.00
49377;BME280;35253;34.688;33.040;2022-11-20T04:24:50;101995.78;;;18.41;100.00
49377;BME280;35253;34.688;33.040;2022-11-20T04:27:15;101985.31;;;18.36;100.00
49377;BME280;35253;34.688;33.040;2022-11-20T04:29:41;101992.00;;;18.43;100.00
49377;BME280;35253;34.688;33.040;2022-11-20T04:32:07;101989.41;;;18.42;100.00
49377;BME280;35253;34.688;33.040;2022-11-20T04:34:32;101983.78;;;18.45;100.00
49377;BME280;35253;34.688;33.040;2022-11-20T04:36:58;101984.91;;;18.55;100.00
49377;BME280;35253;34.688;33.040;2022-11-20T04:39:24;101994.59;;;18.58;100.00
49377;BME280;35253;34.688;33.040;2022-11-20T04:41:49;101978.63;;;18.55;100.00
49377;BME280;35253;34.688;33.040;2022-11-20T04:44:34;101981.19;;;18.56;100.00
49377;BME280;35253;34.688;33.040;2022-11-20T04:47:00;101981.88;;;18.60;100.00
49377;BME280;35253;34.688;33.040;2022-11-20T04:49:25;101985.78;;;18.56;100.00
49377;BME280;35253;34.688;33.040;2022-11-20T04:51:53;101979.56;;;18.66;100.00
49377;BME280;35253;34.688;33.040;2022-11-20T04:54:18;101978.16;;;18.61;100.00
49377;BME280;35253;34.688;33.040;2022-11-20T04:56:47;101975.56;;;18.72;100.00
49377;BME280;35253;34.688;33.040;2022-11-20T04:59:12;101983.56;;;18.73;100.00
49377;BME280;35253;34.688;33.040;2022-11-20T05:01:38;101981.63;;;18.75;100.00
49377;BME280;35253;34.688;33.040;2022-11-20T05:04:03;101984.22;;;18.77;100.00
49377;BME280;35253;34.688;33.040;2022-11-20T05:06:29;101988.66;;;18.78;100.00
49377;BME280;35253;34.688;33.040;2022-11-20T05:08:54;101994.78;;;18.80;100.00
49377;BME280;35253;34.688;33.040;2022-11-20T05:11:20;101989.28;;;18.81;100.00
49377;BME280;35253;34.688;33.040;2022-11-20T05:13:46;101992.72;;;18.83;100.00
49377;BME280;35253;34.688;33.040;2022-11-20T05:16:12;101990.66;;;18.87;100.00
49377;BME280;35253;34.688;33.040;2022-11-20T05:18:38;101993.69;;;18.95;100.00
49377;BME280;35253;34.688;33.040;2022-11-20T05:21:04;101996.88;;;19.00;100.00
49377;BME280;35253;34.688;33.040;2022-11-20T05:23:30;102000.44;;;18.77;100.00
49377;BME280;35253;34.688;33.040;2022-11-20T05:25:56;101997.25;;;18.83;100.00
49377;BME280;35253;34.688;33.040;2022-11-20T05:28:22;102000.63;;;18.74;100.00
49377;BME280;35253;34.688;33.040;2022-11-20T05:30:48;102012.50;;;18.84;100.00
49377;BME280;35253;34.688;33.040;2022-11-20T05:33:14;101999.19;;;18.94;100.00
49377;BME280;35253;34.688;33.040;2022-11-20T05:35:39;102008.81;;;18.98;100.00
49377;BME280;35253;34.688;33.040;2022-11-20T05:38:05;102010.50;;;19.11;100.00
49377;BME280;35253;34.688;33.040;2022-11-20T05:40:30;102020.03;;;19.04;100.00
49377;BME280;35253;34.688;33.040;2022-11-20T05:42:56;102023.91;;;19.13;100.00
49377;BME280;35253;34.688;33.040;2022-11-20T05:45:21;102024.31;;;19.19;100.00
49377;BME280;35253;34.688;33.040;2022-11-20T05:47:47;102022.13;;;19.24;100.00
49377;BME280;35253;34.688;33.040;2022-11-20T05:50:14;102030.00;;;19.27;100.00
49377;BME280;35253;34.688;33.040;2022-11-20T05:52:40;102030.09;;;19.39;100.00
49377;BME280;35253;34.688;33.040;2022-11-20T05:55:08;102026.00;;;19.33;100.00
49377;BME280;35253;34.688;33.040;2022-11-20T05:57:37;102027.94;;;19.44;100.00
49377;BME280;35253;34.688;33.040;2022-11-20T06:00:02;102031.66;;;19.54;100.00
49377;BME280;35253;34.688;33.040;2022-11-20T06:02:28;102032.81;;;19.62;100.00
49377;BME280;35253;34.688;33.040;2022-11-20T06:04:54;102039.38;;;19.71;100.00
49377;BME280;35253;34.688;33.040;2022-11-20T06:07:20;102044.03;;;19.69;100.00
49377;BME280;35253;34.688;33.040;2022-11-20T06:09:45;102050.94;;;19.73;100.00
49377;BME280;35253;34.688;33.040;2022-11-20T06:12:11;102047.56;;;19.82;100.00
49377;BME280;35253;34.688;33.040;2022-11-20T06:14:36;102052.25;;;19.91;100.00
49377;BME280;35253;34.688;33.040;2022-11-20T06:17:01;102046.50;;;20.07;100.00
49377;BME280;35253;34.688;33.040;2022-11-20T06:19:27;102051.81;;;20.08;100.00
49377;BME280;35253;34.688;33.040;2022-11-20T06:21:52;102053.56;;;20.09;100.00
49377;BME280;35253;34.688;33.040;2022-11-20T06:24:18;102060.31;;;20.15;100.00
49377;BME280;35253;34.688;33.040;2022-11-20T06:26:43;102060.72;;;20.21;100.00
49377;BME280;35253;34.688;33.040;2022-11-20T06:29:09;102050.34;;;20.39;100.00
49377;BME280;35253;34.688;33.040;2022-11-20T06:31:35;102058.09;;;20.44;100.00
49377;BME280;35253;34.688;33.040;2022-11-20T06:34:03;102051.97;;;20.53;100.00
49377;BME280;35253;34.688;33.040;2022-11-20T06:36:28;102056.66;;;20.62;100.00
49377;BME280;35253;34.688;33.040;2022-11-20T06:38:54;102056.91;;;20.70;100.00
49377;BME280;35253;34.688;33.040;2022-11-20T06:41:20;102057.16;;;20.78;100.00
49377;BME280;35253;34.688;33.040;2022-11-20T06:43:45;102057.75;;;20.82;100.00
49377;BME280;35253;34.688;33.040;2022-11-20T06:46:11;102053.06;;;20.95;100.00
49377;BME280;35253;34.688;33.040;2022-11-20T06:48:37;102062.19;;;21.05;100.00
49377;BME280;35253;34.688;33.040;2022-11-20T06:51:04;102059.22;;;21.08;100.00
49377;BME280;35253;34.688;33.040;2022-11-20T06:53:29;102049.50;;;21.17;100.00
49377;BME280;35253;34.688;33.040;2022-11-20T06:55:55;102054.28;;;21.24;100.00
49377;BME280;35253;34.688;33.040;2022-11-20T06:58:21;102043.81;;;21.31;100.00
49377;BME280;35253;34.688;33.040;2022-11-20T07:00:46;102046.03;;;21.37;100.00
49377;BME280;35253;34.688;33.040;2022-11-20T07:03:12;102045.38;;;21.44;100.00
49377;BME280;35253;34.688;33.040;2022-11-20T07:05:37;102042.53;;;21.46;100.00
49377;BME280;35253;34.688;33.040;2022-11-20T07:08:06;102051.41;;;21.48;100.00
49377;BME280;35253;34.688;33.040;2022-11-20T07:10:32;102053.25;;;21.58;100.00
49377;BME280;35253;34.688;33.040;2022-11-20T07:12:57;102055.44;;;21.65;100.00
49377;BME280;35253;34.688;33.040;2022-11-20T07:15:23;102052.38;;;21.58;100.00
49377;BME280;35253;34.688;33.040;2022-11-20T07:17:49;102054.06;;;21.59;100.00
49377;BME280;35253;34.688;33.040;2022-11-20T07:20:14;102045.81;;;21.61;100.00
49377;BME280;35253;34.688;33.040;2022-11-20T07:22:40;102059.59;;;21.69;100.00
49377;BME280;35253;34.688;33.040;2022-11-20T07:25:07;102044.75;;;21.84;100.00
49377;BME280;35253;34.688;33.040;2022-11-20T07:27:33;102047.25;;;21.76;100.00
49377;BME280;35253;34.688;33.040;2022-11-20T07:29:58;102043.41;;;21.78;100.00
49377;BME280;35253;34.688;33.040;2022-11-20T07:32:24;102051.28;;;21.92;100.00
49377;BME280;35253;34.688;33.040;2022-11-20T07:34:50;102040.31;;;21.83;100.00
49377;BME280;35253;34.688;33.040;2022-11-20T07:37:15;102049.53;;;21.91;100.00
49377;BME280;35253;34.688;33.040;2022-11-20T07:39:41;102033.84;;;21.95;100.00
49377;BME280;35253;34.688;33.040;2022-11-20T07:42:07;102033.22;;;21.91;100.00
49377;BME280;35253;34.688;33.040;2022-11-20T07:44:32;102030.50;;;22.02;100.00
49377;BME280;35253;34.688;33.040;2022-11-20T07:46:58;102033.66;;;22.08;100.00
49377;BME280;35253;34.688;33.040;2022-11-20T07:49:23;102025.25;;;22.11;100.00
49377;BME280;35253;34.688;33.040;2022-11-20T07:51:52;102028.38;;;22.06;100.00
49377;BME280;35253;34.688;33.040;2022-11-20T07:54:19;102024.19;;;22.02;100.00
49377;BME280;35253;34.688;33.040;2022-11-20T07:56:45;102025.97;;;22.13;100.00
49377;BME280;35253;34.688;33.040;2022-11-20T07:59:10;102015.84;;;22.15;100.00
49377;BME280;35253;34.688;33.040;2022-11-20T08:01:37;102018.47;;;22.26;100.00
49377;BME280;35253;34.688;33.040;2022-11-20T08:04:02;102013.44;;;22.21;100.00
49377;BME280;35253;34.688;33.040;2022-11-20T08:06:28;102014.66;;;22.28;100.00
49377;BME280;35253;34.688;33.040;2022-11-20T08:08:53;102011.53;;;22.33;100.00
49377;BME280;35253;34.688;33.040;2022-11-20T08:11:19;102006.53;;;22.38;100.00
49377;BME280;35253;34.688;33.040;2022-11-20T08:14:03;102001.84;;;22.40;100.00
49377;BME280;35253;34.688;33.040;2022-11-20T08:16:40;102000.97;;;22.39;100.00
49377;BME280;35253;34.688;33.040;2022-11-20T08:19:06;101995.88;;;22.46;100.00
49377;BME280;35253;34.688;33.040;2022-11-20T08:21:31;101983.22;;;22.35;100.00
49377;BME280;35253;34.688;33.040;2022-11-20T08:23:57;101997.38;;;22.39;100.00
49377;BME280;35253;34.688;33.040;2022-11-20T08:26:23;101988.38;;;22.38;100.00
49377;BME280;35253;34.688;33.040;2022-11-20T08:28:48;101988.72;;;22.45;100.00
49377;BME280;35253;34.688;33.040;2022-11-20T08:31:14;101982.53;;;22.43;100.00
49377;BME280;35253;34.688;33.040;2022-11-20T08:33:39;101979.28;;;22.49;100.00
49377;BME280;35253;34.688;33.040;2022-11-20T08:36:06;101977.28;;;22.51;100.00
49377;BME280;35253;34.688;33.040;2022-11-20T08:38:32;101968.19;;;22.62;100.00
49377;BME280;35253;34.688;33.040;2022-11-20T08:41:01;101962.16;;;22.58;100.00
49377;BME280;35253;34.688;33.040;2022-11-20T08:43:47;101960.75;;;22.64;100.00
49377;BME280;35253;34.688;33.040;2022-11-20T08:46:12;101949.03;;;22.63;100.00
49377;BME280;35253;34.688;33.040;2022-11-20T08:48:38;101951.28;;;22.58;100.00
49377;BME280;35253;34.688;33.040;2022-11-20T08:51:03;101951.44;;;22.66;100.00
49377;BME280;35253;34.688;33.040;2022-11-20T08:53:29;101947.56;;;22.59;100.00
49377;BME280;35253;34.688;33.040;2022-11-20T08:55:54;101945.72;;;22.60;100.00
49377;BME280;35253;34.688;33.040;2022-11-20T08:58:19;101945.88;;;22.68;100.00
49377;BME280;35253;34.688;33.040;2022-11-20T09:00:45;101945.34;;;22.74;100.00
49377;BME280;35253;34.688;33.040;2022-11-20T09:03:10;101933.81;;;22.81;100.00
49377;BME280;35253;34.688;33.040;2022-11-20T09:05:38;101932.78;;;22.82;100.00
49377;BME280;35253;34.688;33.040;2022-11-20T09:08:03;101937.09;;;22.85;100.00
49377;BME280;35253;34.688;33.040;2022-11-20T09:10:29;101930.50;;;22.87;100.00
49377;BME280;35253;34.688;33.040;2022-11-20T09:12:54;101931.50;;;22.86;100.00
49377;BME280;35253;34.688;33.040;2022-11-20T09:15:20;101927.06;;;22.85;100.00
49377;BME280;35253;34.688;33.040;2022-11-20T09:17:56;101926.25;;;22.95;100.00
49377;BME280;35253;34.688;33.040;2022-11-20T09:20:21;101917.50;;;23.01;100.00
49377;BME280;35253;34.688;33.040;2022-11-20T09:22:47;101918.94;;;23.05;100.00
49377;BME280;35253;34.688;33.040;2022-11-20T09:25:13;101917.38;;;23.12;100.00
49377;BME280;35253;34.688;33.040;2022-11-20T09:27:38;101905.63;;;23.11;100.00
49377;BME280;35253;34.688;33.040;2022-11-20T09:30:04;101909.94;;;23.14;100.00
49377;BME280;35253;34.688;33.040;2022-11-20T09:32:29;101899.78;;;23.16;100.00
49377;BME280;35253;34.688;33.040;2022-11-20T09:34:55;101899.03;;;23.14;100.00
49377;BME280;35253;34.688;33.040;2022-11-20T09:37:20;101893.03;;;23.20;100.00
49377;BME280;35253;34.688;33.040;2022-11-20T09:39:46;101892.91;;;23.12;100.00
49377;BME280;35253;34.688;33.040;2022-11-20T09:50:23;101858.94;;;23.35;100.00
49377;BME280;35253;34.688;33.040;2022-11-20T09:55:35;101853.22;;;23.38;100.00
49377;BME280;35253;34.688;33.040;2022-11-20T09:58:01;101856.09;;;23.46;100.00
49377;BME280;35253;34.688;33.040;2022-11-20T10:00:31;101858.94;;;23.54;100.00
49377;BME280;35253;34.688;33.040;2022-11-20T10:03:01;101852.63;;;23.63;100.00
49377;BME280;35253;34.688;33.040;2022-11-20T10:05:30;101861.50;;;23.65;100.00
49377;BME280;35253;34.688;33.040;2022-11-20T10:08:05;101845.44;;;23.72;100.00
49377;BME280;35253;34.688;33.040;2022-11-20T10:10:35;101847.72;;;23.76;100.00
49377;BME280;35253;34.688;33.040;2022-11-20T10:15:52;101846.53;;;23.89;100.00
49377;BME280;35253;34.688;33.040;2022-11-20T10:18:42;101855.13;;;23.94;100.00
49377;BME280;35253;34.688;33.040;2022-11-20T10:21:12;101842.59;;;24.01;100.00
49377;BME280;35253;34.688;33.040;2022-11-20T10:23:44;101836.16;;;24.02;100.00
49377;BME280;35253;34.688;33.040;2022-11-20T10:26:17;101842.44;;;24.12;100.00
49377;BME280;35253;34.688;33.040;2022-11-20T10:28:46;101843.97;;;24.24;100.00
49377;BME280;35253;34.688;33.040;2022-11-20T10:31:17;101841.34;;;24.32;100.00
49377;BME280;35253;34.688;33.040;2022-11-20T10:33:49;101835.72;;;24.43;100.00
49377;BME280;35253;34.688;33.040;2022-11-20T10:36:19;101830.59;;;24.58;100.00
49377;BME280;35253;34.688;33.040;2022-11-20T10:38:57;101829.91;;;24.74;100.00
49377;BME280;35253;34.688;33.040;2022-11-20T10:41:32;101835.25;;;24.93;100.00
49377;BME280;35253;34.688;33.040;2022-11-20T10:44:00;101812.88;;;25.07;100.00
49377;BME280;35253;34.688;33.040;2022-11-20T10:46:29;101823.81;;;25.33;100.00
49377;BME280;35253;34.688;33.040;2022-11-20T10:48:57;101811.00;;;25.51;100.00
49377;BME280;35253;34.688;33.040;2022-11-20T10:56:56;101800.94;;;26.11;100.00
49377;BME280;35253;34.688;33.040;2022-11-20T11:01:50;101801.47;;;26.49;100.00
49377;BME280;35253;34.688;33.040;2022-11-20T11:06:54;101805.53;;;27.03;100.00
49377;BME280;35253;34.688;33.040;2022-11-20T11:09:26;101795.44;;;27.19;100.00
49377;BME280;35253;34.688;33.040;2022-11-20T11:11:57;101791.66;;;27.53;100.00
49377;BME280;35253;34.688;33.040;2022-11-20T11:14:22;101781.16;;;27.81;100.00
49377;BME280;35253;34.688;33.040;2022-11-20T11:19:15;101775.31;;;27.75;100.00
49377;BME280;35253;34.688;33.040;2022-11-20T11:21:47;101774.38;;;28.07;100.00
49377;BME280;35253;34.688;33.040;2022-11-20T11:24:34;101770.53;;;28.25;100.00
49377;BME280;35253;34.688;33.040;2022-11-20T11:29:28;101757.59;;;28.64;100.00
49377;BME280;35253;34.688;33.040;2022-11-20T11:34:33;101757.91;;;28.69;100.00
49377;BME280;35253;34.688;33.040;2022-11-20T11:36:59;101754.47;;;28.44;100.00
49377;BME280;35253;34.688;33.040;2022-11-20T11:39:26;101753.13;;;28.71;100.00
49377;BME280;35253;34.688;33.040;2022-11-20T11:41:52;101755.25;;;28.53;100.00
49377;BME280;35253;34.688;33.040;2022-11-20T11:44:22;101759.13;;;28.66;100.00
49377;BME280;35253;34.688;33.040;2022-11-20T11:47:15;101757.09;;;28.91;100.00
49377;BME280;35253;34.688;33.040;2022-11-20T11:49:45;101753.72;;;29.19;100.00
49377;BME280;35253;34.688;33.040;2022-11-20T11:52:15;101750.63;;;29.22;100.00
49377;BME280;35253;34.688;33.040;2022-11-20T11:54:50;101746.34;;;29.57;100.00
49377;BME280;35253;34.688;33.040;2022-11-20T12:00:15;101754.22;;;29.74;100.00
49377;BME280;35253;34.688;33.040;2022-11-20T12:05:53;101761.59;;;29.59;100.00
49377;BME280;35253;34.688;33.040;2022-11-20T12:13:20;101765.56;;;29.19;100.00
49377;BME280;35253;34.688;33.040;2022-11-20T12:15:47;101753.00;;;29.25;100.00
49377;BME280;35253;34.688;33.040;2022-11-20T12:18:17;101746.91;;;29.15;100.00
49377;BME280;35253;34.688;33.040;2022-11-20T12:20:45;101754.13;;;28.70;100.00
49377;BME280;35253;34.688;33.040;2022-11-20T12:23:21;101747.63;;;28.71;100.00
49377;BME280;35253;34.688;33.040;2022-11-20T12:25:50;101758.97;;;28.37;100.00
49377;BME280;35253;34.688;33.040;2022-11-20T12:30:54;101748.22;;;28.28;100.00
49377;BME280;35253;34.688;33.040;2022-11-20T12:50:42;101739.34;;;28.48;100.00
49377;BME280;35253;34.688;33.040;2022-11-20T12:53:25;101745.41;;;28.66;100.00
49377;BME280;35253;34.688;33.040;2022-11-20T12:58:32;101747.75;;;29.15;100.00
49377;BME280;35253;34.688;33.040;2022-11-20T13:01:10;101750.84;;;28.75;100.00
49377;BME280;35253;34.688;33.040;2022-11-20T13:03:57;101753.63;;;29.12;100.00
49377;BME280;35253;34.688;33.040;2022-11-20T13:06:26;101753.47;;;29.28;100.00
49377;BME280;35253;34.688;33.040;2022-11-20T13:08:55;101742.34;;;29.44;100.00
49377;BME280;35253;34.688;33.040;2022-11-20T13:11:30;101748.91;;;29.43;100.00
49377;BME280;35253;34.688;33.040;2022-11-20T13:16:44;101747.00;;;29.44;100.00
49377;BME280;35253;34.688;33.040;2022-11-20T13:19:13;101747.34;;;29.26;100.00
49377;BME280;35253;34.688;33.040;2022-11-20T13:21:40;101743.50;;;29.13;100.00
49377;BME280;35253;34.688;33.040;2022-11-20T13:26:43;101744.78;;;30.63;100.00
49377;BME280;35253;34.688;33.040;2022-11-20T13:29:11;101729.56;;;31.65;100.00
49377;BME280;35253;34.688;33.040;2022-11-20T13:31:37;101731.91;;;32.03;100.00
49377;BME280;35253;34.688;33.040;2022-11-20T13:34:07;101733.13;;;31.94;100.00
49377;BME280;35253;34.688;33.040;2022-11-20T13:36:36;101720.56;;;31.85;100.00
49377;BME280;35253;34.688;33.040;2022-11-20T13:39:02;101728.44;;;31.88;100.00
49377;BME280;35253;34.688;33.040;2022-11-20T13:43:54;101724.72;;;31.12;100.00
49377;BME280;35253;34.688;33.040;2022-11-20T13:46:22;101726.56;;;30.83;100.00
49377;BME280;35253;34.688;33.040;2022-11-20T13:48:49;101726.28;;;30.36;100.00
49377;BME280;35253;34.688;33.040;2022-11-20T13:51:26;101722.44;;;29.86;100.00
49377;BME280;35253;34.688;33.040;2022-11-20T13:56:47;101709.16;;;28.48;100.00
49377;BME280;35253;34.688;33.040;2022-11-20T13:59:16;101708.41;;;28.01;100.00
49377;BME280;35253;34.688;33.040;2022-11-20T14:01:46;101710.69;;;27.50;100.00